createdAt,value
2018-11-06T00:00:15.653Z,37.70
2018-11-06T00:00:50.289Z,36.50
2018-11-06T00:01:24.625Z,35.52
2018-11-06T00:01:58.759Z,37.23
2018-11-06T00:02:32.863Z,35.43
2018-11-06T00:03:12.567Z,36.33
2018-11-06T00:03:48.423Z,35.30
2018-11-06T00:04:26.771Z,34.85
2018-11-06T00:05:06.228Z,36.45
2018-11-06T00:05:40.309Z,36.80
2018-11-06T00:06:15.123Z,37.55
2018-11-06T00:06:50.321Z,36.35
2018-11-06T00:07:24.437Z,35.38
2018-11-06T00:07:58.903Z,35.40
2018-11-06T00:08:33.011Z,35.33
2018-11-06T00:09:08.443Z,36.48
2018-11-06T00:09:45.773Z,38.75
2018-11-06T00:10:19.959Z,37.55
2018-11-06T00:10:54.044Z,36.42
2018-11-06T00:11:28.145Z,37.20
2018-11-06T00:12:02.289Z,34.38
2018-11-06T00:12:36.386Z,36.83
2018-11-06T00:13:10.503Z,35.03
2018-11-06T00:13:44.967Z,35.03
2018-11-06T00:14:19.057Z,36.60
2018-11-06T00:14:53.130Z,36.60
2018-11-06T00:15:28.032Z,37.08
2018-11-06T00:16:02.469Z,38.13
2018-11-06T00:16:36.558Z,36.83
2018-11-06T00:17:11.061Z,36.85
2018-11-06T00:17:45.597Z,36.75
2018-11-06T00:18:19.795Z,35.98
2018-11-06T00:18:54.603Z,36.00
2018-11-06T00:19:28.912Z,34.70
2018-11-06T00:20:03.200Z,35.58
2018-11-06T00:20:37.333Z,35.65
2018-11-06T00:21:11.833Z,35.92
2018-11-06T00:21:46.138Z,35.25
2018-11-06T00:22:20.440Z,37.30
2018-11-06T00:22:55.107Z,36.88
2018-11-06T00:23:30.101Z,37.42
2018-11-06T00:24:04.247Z,37.00
2018-11-06T00:24:38.352Z,35.88
2018-11-06T00:25:13.314Z,38.53
2018-11-06T00:25:47.426Z,34.43
2018-11-06T00:26:21.524Z,35.33
2018-11-06T00:26:55.629Z,35.35
2018-11-06T00:27:30.118Z,35.83
2018-11-06T00:28:04.486Z,37.28
2018-11-06T00:28:38.598Z,37.63
2018-11-06T00:29:12.700Z,35.92
2018-11-06T00:29:46.782Z,36.70
2018-11-06T00:30:20.898Z,36.20
2018-11-06T00:30:54.992Z,35.75
2018-11-06T00:31:29.138Z,37.65
2018-11-06T00:32:03.592Z,36.50
2018-11-06T00:32:38.497Z,38.63
2018-11-06T00:33:12.591Z,38.70
2018-11-06T00:33:46.696Z,36.53
2018-11-06T00:34:21.016Z,35.63
2018-11-06T00:34:55.192Z,36.00
2018-11-06T00:35:29.638Z,37.25
2018-11-06T00:36:03.722Z,36.53
2018-11-06T00:36:37.827Z,36.17
2018-11-06T00:37:12.118Z,35.92
2018-11-06T00:37:46.248Z,37.58
2018-11-06T00:38:20.318Z,36.68
2018-11-06T00:38:54.443Z,36.60
2018-11-06T00:39:28.556Z,35.48
2018-11-06T00:40:03.309Z,36.25
2018-11-06T00:40:37.766Z,35.73
2018-11-06T00:41:11.897Z,38.30
2018-11-06T00:41:46.353Z,36.93
2018-11-06T00:42:20.465Z,36.93
2018-11-06T00:42:54.597Z,37.33
2018-11-06T00:43:28.816Z,37.10
2018-11-06T00:44:03.722Z,35.88
2018-11-06T00:44:38.218Z,35.08
2018-11-06T00:45:14.581Z,35.48
2018-11-06T00:45:48.696Z,34.53
2018-11-06T00:46:22.821Z,34.70
2018-11-06T00:46:56.956Z,35.92
2018-11-06T00:47:31.082Z,35.80
2018-11-06T00:48:06.237Z,36.17
2018-11-06T00:48:40.680Z,36.10
2018-11-06T00:49:15.108Z,37.17
2018-11-06T00:49:49.263Z,36.58
2018-11-06T00:50:24.038Z,35.98
2018-11-06T00:50:58.133Z,38.30
2018-11-06T00:51:32.264Z,35.70
2018-11-06T00:52:06.373Z,35.17
2018-11-06T00:52:41.978Z,34.75
2018-11-06T00:53:16.469Z,36.93
2018-11-06T00:53:50.796Z,35.20
2018-11-06T00:54:24.913Z,36.48
2018-11-06T00:54:59.022Z,36.45
2018-11-06T00:55:33.114Z,36.10
2018-11-06T00:56:07.550Z,33.63
2018-11-06T00:56:42.020Z,36.33
2018-11-06T00:57:16.131Z,36.15
2018-11-06T00:57:50.318Z,37.50
2018-11-06T00:58:25.020Z,35.75
2018-11-06T00:59:01.416Z,34.92
2018-11-06T00:59:35.879Z,36.38
2018-11-06T01:00:12.866Z,35.60
2018-11-06T01:00:48.207Z,34.78
2018-11-06T01:01:22.369Z,35.75
2018-11-06T01:01:56.667Z,36.10
2018-11-06T01:02:33.271Z,36.83
2018-11-06T01:03:08.428Z,35.52
2018-11-06T01:03:55.667Z,36.42
2018-11-06T01:04:29.914Z,34.80
2018-11-06T01:05:04.940Z,36.15
2018-11-06T01:05:39.406Z,34.50
2018-11-06T01:06:13.876Z,34.00
2018-11-06T01:06:48.485Z,36.20
2018-11-06T01:07:23.134Z,36.85
2018-11-06T01:07:57.596Z,36.13
2018-11-06T01:08:32.015Z,35.52
2018-11-06T01:09:09.260Z,34.08
2018-11-06T01:09:43.366Z,36.65
2018-11-06T01:10:17.490Z,35.68
2018-11-06T01:10:53.341Z,35.23
2018-11-06T01:11:27.455Z,35.80
2018-11-06T01:12:02.964Z,36.20
2018-11-06T01:12:37.348Z,35.48
2018-11-06T01:13:13.128Z,35.03
2018-11-06T01:13:49.248Z,35.48
2018-11-06T01:14:25.909Z,36.03
2018-11-06T01:15:00.742Z,35.38
2018-11-06T01:15:35.470Z,35.63
2018-11-06T01:16:09.911Z,35.52
2018-11-06T01:16:45.194Z,35.47
2018-11-06T01:17:19.299Z,32.88
2018-11-06T01:17:53.409Z,35.85
2018-11-06T01:18:27.558Z,33.70
2018-11-06T01:19:01.746Z,33.98
2018-11-06T01:19:37.123Z,34.90
2018-11-06T01:20:14.164Z,36.25
2018-11-06T01:20:48.305Z,33.88
2018-11-06T01:21:22.719Z,34.48
2018-11-06T01:21:57.021Z,33.30
2018-11-06T01:22:31.624Z,34.95
2018-11-06T01:23:06.207Z,34.67
2018-11-06T01:23:40.751Z,34.45
2018-11-06T01:24:16.194Z,34.60
2018-11-06T01:24:52.442Z,34.70
2018-11-06T01:25:26.541Z,33.40
2018-11-06T01:26:00.639Z,34.23
2018-11-06T01:26:34.814Z,35.08
2018-11-06T01:27:10.989Z,35.40
2018-11-06T01:27:45.325Z,34.70
2018-11-06T01:28:19.801Z,34.78
2018-11-06T01:28:54.296Z,34.50
2018-11-06T01:29:28.838Z,34.38
2018-11-06T01:30:06.584Z,33.28
2018-11-06T01:30:40.704Z,33.78
2018-11-06T01:31:16.009Z,34.23
2018-11-06T01:31:50.107Z,33.70
2018-11-06T01:32:26.688Z,33.05
2018-11-06T01:33:00.812Z,32.30
2018-11-06T01:33:36.307Z,33.40
2018-11-06T01:34:12.146Z,33.02
2018-11-06T01:34:46.288Z,33.53
2018-11-06T01:35:23.012Z,33.55
2018-11-06T01:35:57.456Z,33.80
2018-11-06T01:36:31.540Z,32.60
2018-11-06T01:37:06.014Z,33.48
2018-11-06T01:37:41.103Z,33.55
2018-11-06T01:38:15.208Z,34.08
2018-11-06T01:38:49.483Z,32.48
2018-11-06T01:39:23.875Z,32.17
2018-11-06T01:39:57.966Z,32.98
2018-11-06T01:40:33.480Z,34.03
2018-11-06T01:41:12.087Z,31.75
2018-11-06T01:41:48.203Z,34.25
2018-11-06T01:42:23.895Z,31.42
2018-11-06T01:42:58.680Z,33.45
2018-11-06T01:43:35.939Z,34.80
2018-11-06T01:44:11.758Z,32.38
2018-11-06T01:44:45.877Z,30.85
2018-11-06T01:45:21.024Z,32.30
2018-11-06T01:45:56.902Z,34.60
2018-11-06T01:46:31.189Z,30.62
2018-11-06T01:47:05.699Z,33.35
2018-11-06T01:47:40.973Z,32.70
2018-11-06T01:48:15.064Z,32.95
2018-11-06T01:48:50.431Z,32.75
2018-11-06T01:49:24.563Z,32.25
2018-11-06T01:49:59.881Z,32.50
2018-11-06T01:50:34.003Z,31.87
2018-11-06T01:51:09.918Z,30.85
2018-11-06T01:51:44.648Z,32.13
2018-11-06T01:52:19.036Z,30.72
2018-11-06T01:52:53.137Z,32.78
2018-11-06T01:53:28.520Z,31.87
2018-11-06T01:54:04.393Z,32.20
2018-11-06T01:54:38.841Z,33.40
2018-11-06T01:55:14.402Z,31.75
2018-11-06T01:55:48.477Z,31.52
2018-11-06T01:56:22.601Z,31.75
2018-11-06T01:56:56.699Z,33.42
2018-11-06T01:57:30.823Z,32.35
2018-11-06T01:58:05.106Z,31.45
2018-11-06T01:58:39.214Z,30.68
2018-11-06T01:59:13.311Z,31.82
2018-11-06T01:59:47.400Z,31.17
2018-11-06T02:00:21.837Z,30.82
2018-11-06T02:05:56.454Z,26.68
2018-11-06T02:06:30.903Z,29.00
2018-11-06T02:07:05.193Z,30.12
2018-11-06T02:07:39.921Z,30.02
2018-11-06T02:08:14.040Z,30.95
2018-11-06T02:08:48.168Z,31.82
2018-11-06T02:09:22.264Z,32.03
2018-11-06T02:09:56.730Z,29.72
2018-11-06T02:10:30.804Z,31.42
2018-11-06T02:11:04.897Z,30.00
2018-11-06T02:11:39.670Z,30.95
2018-11-06T02:12:14.182Z,31.33
2018-11-06T02:12:48.517Z,31.15
2018-11-06T02:13:25.016Z,31.12
2018-11-06T02:13:59.097Z,31.07
2018-11-06T02:14:33.888Z,32.20
2018-11-06T02:15:09.785Z,31.80
2018-11-06T02:15:44.558Z,31.20
2018-11-06T02:16:20.406Z,31.45
2018-11-06T02:16:54.958Z,28.75
2018-11-06T02:17:29.116Z,29.82
2018-11-06T02:18:05.137Z,31.70
2018-11-06T02:18:40.619Z,30.02
2018-11-06T02:19:16.024Z,30.05
2018-11-06T02:19:51.988Z,29.80
2018-11-06T02:20:26.090Z,30.15
2018-11-06T02:21:01.872Z,31.57
2018-11-06T02:21:38.018Z,29.10
2018-11-06T02:22:12.256Z,30.62
2018-11-06T02:22:48.628Z,32.15
2018-11-06T02:23:23.872Z,29.65
2018-11-06T02:23:59.386Z,30.50
2018-11-06T02:24:34.714Z,29.72
2018-11-06T02:25:09.449Z,29.35
2018-11-06T02:25:47.397Z,29.00
2018-11-06T02:26:23.724Z,28.62
2018-11-06T02:26:59.018Z,29.35
2018-11-06T02:27:33.817Z,27.90
2018-11-06T02:28:08.904Z,28.75
2018-11-06T02:28:43.812Z,27.82
2018-11-06T02:29:19.500Z,29.15
2018-11-06T02:29:54.182Z,27.77
2018-11-06T02:30:29.224Z,28.05
2018-11-06T02:31:03.921Z,31.70
2018-11-06T02:31:39.848Z,29.75
2018-11-06T02:32:14.025Z,30.08
2018-11-06T02:32:48.803Z,29.87
2018-11-06T02:33:23.838Z,29.63
2018-11-06T02:33:58.001Z,29.75
2018-11-06T02:34:33.699Z,29.25
2018-11-06T02:35:09.508Z,30.02
2018-11-06T02:35:44.703Z,29.15
2018-11-06T02:36:20.347Z,28.60
2018-11-06T02:36:55.461Z,28.90
2018-11-06T02:37:31.322Z,28.95
2018-11-06T02:38:06.012Z,29.52
2018-11-06T02:38:40.394Z,27.87
2018-11-06T02:39:16.284Z,28.87
2018-11-06T02:39:53.320Z,27.93
2018-11-06T02:40:27.825Z,28.10
2018-11-06T02:41:02.644Z,28.70
2018-11-06T02:41:38.254Z,29.18
2018-11-06T02:42:12.424Z,28.15
2018-11-06T02:42:46.680Z,30.00
2018-11-06T02:43:21.122Z,28.20
2018-11-06T02:43:55.280Z,29.60
2018-11-06T02:44:30.126Z,28.65
2018-11-06T02:45:06.352Z,30.15
2018-11-06T02:45:41.564Z,28.38
2018-11-06T02:46:15.694Z,27.50
2018-11-06T02:46:49.792Z,26.87
2018-11-06T02:47:24.224Z,27.65
2018-11-06T02:47:58.349Z,29.15
2018-11-06T02:48:32.745Z,28.15
2018-11-06T02:49:07.059Z,27.00
2018-11-06T02:49:41.276Z,26.33
2018-11-06T02:50:18.020Z,28.83
2018-11-06T02:50:52.164Z,27.17
2018-11-06T02:51:28.871Z,27.27
2018-11-06T02:52:05.404Z,27.73
2018-11-06T02:52:39.721Z,25.37
2018-11-06T02:53:15.141Z,28.15
2018-11-06T02:53:51.223Z,28.20
2018-11-06T02:54:26.117Z,26.60
2018-11-06T02:55:01.980Z,27.70
2018-11-06T02:55:38.079Z,27.22
2018-11-06T02:56:12.742Z,27.20
2018-11-06T02:56:47.803Z,26.33
2018-11-06T02:57:22.880Z,27.45
2018-11-06T02:57:57.024Z,28.27
2018-11-06T02:58:32.536Z,27.05
2018-11-06T02:59:08.330Z,26.23
2018-11-06T02:59:42.667Z,28.35
2018-11-06T03:00:17.784Z,28.70
2018-11-06T03:00:54.018Z,26.82
2018-11-06T03:01:29.934Z,26.57
2018-11-06T03:02:05.599Z,27.45
2018-11-06T03:02:40.872Z,26.15
2018-11-06T03:03:14.980Z,24.95
2018-11-06T03:03:50.537Z,26.62
2018-11-06T03:04:26.036Z,28.70
2018-11-06T03:05:01.856Z,28.73
2018-11-06T03:05:36.308Z,25.55
2018-11-06T03:06:13.681Z,27.52
2018-11-06T03:06:48.277Z,25.75
2018-11-06T03:07:22.715Z,26.77
2018-11-06T03:07:58.570Z,27.10
2018-11-06T03:08:33.674Z,26.05
2018-11-06T03:09:09.264Z,25.97
2018-11-06T03:09:44.338Z,25.57
2018-11-06T03:10:19.695Z,26.17
2018-11-06T03:10:53.964Z,26.10
2018-11-06T03:11:29.059Z,25.32
2018-11-06T03:12:04.690Z,27.13
2018-11-06T03:12:41.764Z,27.85
2018-11-06T03:13:15.894Z,25.92
2018-11-06T03:13:51.291Z,26.05
2018-11-06T03:14:27.088Z,26.85
2018-11-06T03:15:01.532Z,27.20
2018-11-06T03:15:37.090Z,26.52
2018-11-06T03:16:18.566Z,26.95
2018-11-06T03:16:55.924Z,26.57
2018-11-06T03:17:30.936Z,25.97
2018-11-06T03:18:06.331Z,26.20
2018-11-06T03:18:40.812Z,25.15
2018-11-06T03:19:15.968Z,26.30
2018-11-06T03:19:53.001Z,25.88
2018-11-06T03:20:27.480Z,25.68
2018-11-06T03:21:01.602Z,27.10
2018-11-06T03:21:35.836Z,24.92
2018-11-06T03:22:13.016Z,25.43
2018-11-06T03:22:48.445Z,25.45
2018-11-06T03:23:22.588Z,26.48
2018-11-06T03:23:56.881Z,25.20
2018-11-06T03:24:32.921Z,25.27
2018-11-06T03:25:07.370Z,26.73
2018-11-06T03:25:43.045Z,24.45
2018-11-06T03:26:17.144Z,25.52
2018-11-06T03:26:51.317Z,25.15
2018-11-06T03:27:27.580Z,24.82
2018-11-06T03:28:03.228Z,25.55
2018-11-06T03:28:37.329Z,25.60
2018-11-06T03:29:11.530Z,24.85
2018-11-06T03:29:45.642Z,25.72
2018-11-06T03:30:20.715Z,26.35
2018-11-06T03:30:55.021Z,24.55
2018-11-06T03:31:29.121Z,26.07
2018-11-06T03:32:04.273Z,25.27
2018-11-06T03:32:40.715Z,26.20
2018-11-06T03:33:14.832Z,24.52
2018-11-06T03:33:48.953Z,25.57
2018-11-06T03:34:25.596Z,24.75
2018-11-06T03:35:00.072Z,24.50
2018-11-06T03:35:34.398Z,24.75
2018-11-06T03:36:09.343Z,26.12
2018-11-06T03:36:45.110Z,24.25
2018-11-06T03:37:20.437Z,25.25
2018-11-06T03:37:56.317Z,24.45
2018-11-06T03:38:30.620Z,24.82
2018-11-06T03:39:07.146Z,23.50
2018-11-06T03:39:41.704Z,25.65
2018-11-06T03:40:16.139Z,25.05
2018-11-06T03:40:51.426Z,24.32
2018-11-06T03:41:27.654Z,24.02
2018-11-06T03:42:01.737Z,25.55
2018-11-06T03:42:40.142Z,25.82
2018-11-06T03:43:18.764Z,24.27
2018-11-06T03:43:54.001Z,25.70
2018-11-06T03:44:28.117Z,25.08
2018-11-06T03:45:03.918Z,25.37
2018-11-06T03:45:38.970Z,24.45
2018-11-06T03:46:13.108Z,24.15
2018-11-06T03:46:47.224Z,25.30
2018-11-06T03:47:22.589Z,24.98
2018-11-06T03:47:58.410Z,24.45
2018-11-06T03:48:35.305Z,25.00
2018-11-06T03:49:09.421Z,23.85
2018-11-06T03:49:44.711Z,23.20
2018-11-06T03:50:18.868Z,25.17
2018-11-06T03:50:53.977Z,25.57
2018-11-06T03:51:30.749Z,24.35
2018-11-06T03:52:05.098Z,24.52
2018-11-06T03:52:39.561Z,24.37
2018-11-06T03:53:14.995Z,24.72
2018-11-06T03:53:51.108Z,24.07
2018-11-06T03:54:27.237Z,24.15
2018-11-06T03:55:02.637Z,24.57
2018-11-06T03:55:38.598Z,24.75
2018-11-06T03:56:12.827Z,25.32
2018-11-06T03:56:47.166Z,23.62
2018-11-06T03:57:21.842Z,25.20
2018-11-06T03:57:57.311Z,24.30
2018-11-06T03:58:32.090Z,25.65
2018-11-06T03:59:09.065Z,25.90
2018-11-06T03:59:43.488Z,25.25
2018-11-06T04:00:17.904Z,24.50
2018-11-06T04:00:52.755Z,24.82
2018-11-06T04:01:27.341Z,25.35
2018-11-06T04:02:02.953Z,24.65
2018-11-06T04:02:37.571Z,24.60
2018-11-06T04:03:13.513Z,24.60
2018-11-06T04:03:48.613Z,25.35
2018-11-06T04:04:25.169Z,24.18
2018-11-06T04:04:59.292Z,25.10
2018-11-06T04:05:33.362Z,23.85
2018-11-06T04:06:07.988Z,24.20
2018-11-06T04:06:42.420Z,24.32
2018-11-06T04:07:17.987Z,25.02
2018-11-06T04:07:52.121Z,25.72
2018-11-06T04:08:28.794Z,22.93
2018-11-06T04:09:03.287Z,24.00
2018-11-06T04:09:39.853Z,24.02
2018-11-06T04:10:16.398Z,24.47
2018-11-06T04:10:50.514Z,23.75
2018-11-06T04:11:26.573Z,23.40
2018-11-06T04:12:00.717Z,24.90
2018-11-06T04:12:35.145Z,24.05
2018-11-06T04:13:09.281Z,22.05
2018-11-06T04:13:45.324Z,23.90
2018-11-06T04:14:19.433Z,23.73
2018-11-06T04:14:55.691Z,24.18
2018-11-06T04:15:29.755Z,23.42
2018-11-06T04:16:03.836Z,24.95
2018-11-06T04:16:39.670Z,23.55
2018-11-06T04:17:13.767Z,23.57
2018-11-06T04:17:49.677Z,23.90
2018-11-06T04:18:25.427Z,23.42
2018-11-06T04:18:59.550Z,24.10
2018-11-06T04:19:33.993Z,24.25
2018-11-06T04:20:10.338Z,24.00
2018-11-06T04:20:44.438Z,22.77
2018-11-06T04:21:23.022Z,25.30
2018-11-06T04:21:57.213Z,23.15
2018-11-06T04:22:33.073Z,23.85
2018-11-06T04:23:07.492Z,23.30
2018-11-06T04:23:41.694Z,24.82
2018-11-06T04:24:17.023Z,23.85
2018-11-06T04:24:52.490Z,24.20
2018-11-06T04:25:29.611Z,24.23
2018-11-06T04:26:05.613Z,24.20
2018-11-06T04:26:40.598Z,23.80
2018-11-06T04:27:17.120Z,24.85
2018-11-06T04:27:52.752Z,22.55
2018-11-06T04:28:27.695Z,24.32
2018-11-06T04:29:02.234Z,23.55
2018-11-06T04:29:36.382Z,23.80
2018-11-06T04:30:13.357Z,25.37
2018-11-06T04:30:49.303Z,24.75
2018-11-06T04:31:24.504Z,25.05
2018-11-06T04:31:58.611Z,24.80
2018-11-06T04:32:33.909Z,23.70
2018-11-06T04:33:08.650Z,24.02
2018-11-06T04:33:43.865Z,23.52
2018-11-06T04:34:17.935Z,23.20
2018-11-06T04:34:53.957Z,23.42
2018-11-06T04:35:28.439Z,23.95
2018-11-06T04:36:04.986Z,24.02
2018-11-06T04:36:39.057Z,23.02
2018-11-06T04:37:14.197Z,24.12
2018-11-06T04:37:48.316Z,24.80
2018-11-06T04:38:23.909Z,23.07
2018-11-06T04:38:58.707Z,24.37
2018-11-06T04:39:32.793Z,23.87
2018-11-06T04:40:09.427Z,24.30
2018-11-06T04:40:44.505Z,22.58
2018-11-06T04:41:20.868Z,23.40
2018-11-06T04:41:54.956Z,24.40
2018-11-06T04:42:30.057Z,24.30
2018-11-06T04:43:04.661Z,22.77
2018-11-06T04:43:39.841Z,22.35
2018-11-06T04:44:14.013Z,24.05
2018-11-06T04:44:49.595Z,23.30
2018-11-06T04:45:23.717Z,23.32
2018-11-06T04:45:58.740Z,23.45
2018-11-06T04:46:34.477Z,23.52
2018-11-06T04:47:10.499Z,22.73
2018-11-06T04:47:46.534Z,22.95
2018-11-06T04:48:20.629Z,22.87
2018-11-06T04:48:55.394Z,24.23
2018-11-06T04:49:29.645Z,23.83
2018-11-06T04:50:05.435Z,24.23
2018-11-06T04:50:41.328Z,22.17
2018-11-06T04:51:16.391Z,24.40
2018-11-06T04:51:53.757Z,23.22
2018-11-06T04:52:27.861Z,24.10
2018-11-06T04:53:01.953Z,23.42
2018-11-06T04:53:36.673Z,22.70
2018-11-06T04:54:11.133Z,23.38
2018-11-06T04:54:45.211Z,22.60
2018-11-06T04:55:19.641Z,24.15
2018-11-06T04:55:53.737Z,25.15
2018-11-06T04:56:28.917Z,22.62
2018-11-06T04:57:03.069Z,23.38
2018-11-06T04:57:37.147Z,25.75
2018-11-06T04:58:11.278Z,24.43
2018-11-06T04:58:45.375Z,24.18
2018-11-06T04:59:19.820Z,23.50
2018-11-06T04:59:53.895Z,24.02
2018-11-06T05:00:28.014Z,24.00
2018-11-06T05:01:02.683Z,24.05
2018-11-06T05:01:37.094Z,23.12
2018-11-06T05:02:11.611Z,23.98
2018-11-06T05:02:46.184Z,22.27
2018-11-06T05:03:20.284Z,24.15
2018-11-06T05:03:54.361Z,23.60
2018-11-06T05:04:28.458Z,23.87
2018-11-06T05:05:02.889Z,23.60
2018-11-06T05:05:37.027Z,21.62
2018-11-06T05:06:11.176Z,23.92
2018-11-06T05:06:45.682Z,23.70
2018-11-06T05:07:20.129Z,22.35
2018-11-06T05:07:54.615Z,23.57
2018-11-06T05:08:28.722Z,24.12
2018-11-06T05:09:03.666Z,22.67
2018-11-06T05:09:37.791Z,24.45
2018-11-06T05:10:13.367Z,23.57
2018-11-06T05:10:47.436Z,23.15
2018-11-06T05:11:21.639Z,22.85
2018-11-06T05:11:55.739Z,23.75
2018-11-06T05:12:29.869Z,24.85
2018-11-06T05:13:04.625Z,22.87
2018-11-06T05:13:38.747Z,24.32
2018-11-06T05:14:12.907Z,24.12
2018-11-06T05:14:47.155Z,23.12
2018-11-06T05:15:21.617Z,25.37
2018-11-06T05:15:56.074Z,22.80
2018-11-06T05:16:30.519Z,23.05
2018-11-06T05:17:04.610Z,23.62
2018-11-06T05:17:44.549Z,23.52
2018-11-06T05:18:24.318Z,23.27
2018-11-06T05:19:04.252Z,23.75
2018-11-06T05:19:44.060Z,22.70
2018-11-06T05:20:23.960Z,23.32
2018-11-06T05:21:03.793Z,23.27
2018-11-06T05:21:43.559Z,23.57
2018-11-06T05:22:23.733Z,24.43
2018-11-06T05:23:03.669Z,24.95
2018-11-06T05:23:43.607Z,24.75
2018-11-06T05:24:23.260Z,23.90
2018-11-06T05:25:03.560Z,22.05
2018-11-06T05:25:43.346Z,23.05
2018-11-06T05:26:23.248Z,22.95
2018-11-06T05:27:03.929Z,23.65
2018-11-06T05:27:43.866Z,22.37
2018-11-06T05:28:23.810Z,23.10
2018-11-06T05:29:04.012Z,22.82
2018-11-06T05:29:38.116Z,23.35
2018-11-06T05:30:12.677Z,23.62
2018-11-06T05:30:47.090Z,23.55
2018-11-06T05:31:21.158Z,23.55
2018-11-06T05:31:55.230Z,22.80
2018-11-06T05:32:29.327Z,22.80
2018-11-06T05:33:03.824Z,21.95
2018-11-06T05:33:38.104Z,22.40
2018-11-06T05:34:12.246Z,22.75
2018-11-06T05:34:47.253Z,22.93
2018-11-06T05:35:21.493Z,21.70
2018-11-06T05:35:55.570Z,22.50
2018-11-06T05:36:29.698Z,23.20
2018-11-06T05:37:04.136Z,23.32
2018-11-06T05:37:38.442Z,22.27
2018-11-06T05:38:12.882Z,23.02
2018-11-06T05:38:47.401Z,23.07
2018-11-06T05:39:21.697Z,23.10
2018-11-06T05:40:07.621Z,22.13
2018-11-06T05:40:58.524Z,23.00
2018-11-06T05:41:33.317Z,22.85
2018-11-06T05:42:07.382Z,22.62
2018-11-06T05:42:41.649Z,22.67
2018-11-06T05:43:16.089Z,23.12
2018-11-06T05:43:50.235Z,22.93
2018-11-06T05:44:24.544Z,23.98
2018-11-06T05:44:58.647Z,23.12
2018-11-06T05:45:33.075Z,22.98
2018-11-06T05:46:07.663Z,23.22
2018-11-06T05:46:41.771Z,22.90
2018-11-06T05:47:16.073Z,23.65
2018-11-06T05:47:50.173Z,21.93
2018-11-06T05:48:24.309Z,23.98
2018-11-06T05:48:58.755Z,23.57
2018-11-06T05:49:32.848Z,22.02
2018-11-06T05:50:07.315Z,22.25
2018-11-06T05:50:41.749Z,23.92
2018-11-06T05:51:15.852Z,24.75
2018-11-06T05:51:50.265Z,22.60
2018-11-06T05:52:24.374Z,22.60
2018-11-06T05:52:58.846Z,22.82
2018-11-06T05:53:33.461Z,23.50
2018-11-06T05:54:07.584Z,22.67
2018-11-06T05:54:41.683Z,21.97
2018-11-06T05:55:15.765Z,22.13
2018-11-06T05:55:50.525Z,22.90
2018-11-06T05:56:24.665Z,21.30
2018-11-06T05:56:58.801Z,23.15
2018-11-06T05:57:33.247Z,23.02
2018-11-06T05:58:07.438Z,21.17
2018-11-06T05:58:41.593Z,22.50
2018-11-06T05:59:15.711Z,22.25
2018-11-06T05:59:49.834Z,21.60
2018-11-06T06:00:23.941Z,21.77
2018-11-06T06:00:58.235Z,21.82
2018-11-06T06:01:32.325Z,21.85
2018-11-06T06:02:06.758Z,22.62
2018-11-06T06:02:41.095Z,22.62
2018-11-06T06:03:16.701Z,22.70
2018-11-06T06:03:51.098Z,22.02
2018-11-06T06:04:25.308Z,22.15
2018-11-06T06:04:59.439Z,20.43
2018-11-06T06:05:34.027Z,22.42
2018-11-06T06:06:08.460Z,24.80
2018-11-06T06:06:42.565Z,22.17
2018-11-06T06:07:17.055Z,23.30
2018-11-06T06:07:51.161Z,21.07
2018-11-06T06:08:25.241Z,23.07
2018-11-06T06:08:59.347Z,21.33
2018-11-06T06:09:36.099Z,20.70
2018-11-06T06:10:10.291Z,20.97
2018-11-06T06:10:47.092Z,21.50
2018-11-06T06:11:21.999Z,21.25
2018-11-06T06:11:57.186Z,22.73
2018-11-06T06:12:31.291Z,22.48
2018-11-06T06:13:07.435Z,22.50
2018-11-06T06:13:41.520Z,21.30
2018-11-06T06:14:15.618Z,21.77
2018-11-06T06:14:50.821Z,21.65
2018-11-06T06:15:25.273Z,23.73
2018-11-06T06:15:59.858Z,21.27
2018-11-06T06:16:33.960Z,21.97
2018-11-06T06:17:08.292Z,22.02
2018-11-06T06:17:42.566Z,22.35
2018-11-06T06:18:16.652Z,21.85
2018-11-06T06:18:51.098Z,22.93
2018-11-06T06:19:25.172Z,21.57
2018-11-06T06:19:59.273Z,23.18
2018-11-06T06:20:33.403Z,22.32
2018-11-06T06:21:07.881Z,21.75
2018-11-06T06:21:41.981Z,22.85
2018-11-06T06:22:16.135Z,21.23
2018-11-06T06:22:50.383Z,21.37
2018-11-06T06:23:24.515Z,22.87
2018-11-06T06:23:59.057Z,22.37
2018-11-06T06:24:33.174Z,21.52
2018-11-06T06:25:07.962Z,20.97
2018-11-06T06:25:42.414Z,21.55
2018-11-06T06:26:16.523Z,23.60
2018-11-06T06:26:50.884Z,21.97
2018-11-06T06:27:25.301Z,22.73
2018-11-06T06:27:59.528Z,22.70
2018-11-06T06:28:34.379Z,22.00
2018-11-06T06:29:08.990Z,22.05
2018-11-06T06:29:43.111Z,21.07
2018-11-06T06:30:17.946Z,23.35
2018-11-06T06:30:52.038Z,20.52
2018-11-06T06:31:26.207Z,22.65
2018-11-06T06:32:00.304Z,22.42
2018-11-06T06:32:34.430Z,22.52
2018-11-06T06:33:08.863Z,22.22
2018-11-06T06:33:43.016Z,23.32
2018-11-06T06:34:17.136Z,22.70
2018-11-06T06:34:51.239Z,23.30
2018-11-06T06:35:25.340Z,22.05
2018-11-06T06:35:59.434Z,22.02
2018-11-06T06:36:33.567Z,22.37
2018-11-06T06:37:08.027Z,22.48
2018-11-06T06:37:42.736Z,22.60
2018-11-06T06:38:16.845Z,21.45
2018-11-06T06:38:51.043Z,22.65
2018-11-06T06:39:25.914Z,23.22
2018-11-06T06:40:00.077Z,21.87
2018-11-06T06:40:34.851Z,22.45
2018-11-06T06:41:09.016Z,21.60
2018-11-06T06:41:43.211Z,21.33
2018-11-06T06:42:17.731Z,22.58
2018-11-06T06:42:51.884Z,22.10
2018-11-06T06:43:26.290Z,21.75
2018-11-06T06:44:00.382Z,21.80
2018-11-06T06:44:34.864Z,21.87
2018-11-06T06:45:12.402Z,22.15
2018-11-06T06:45:46.866Z,22.52
2018-11-06T06:46:21.067Z,22.40
2018-11-06T06:46:55.298Z,21.10
2018-11-06T06:47:30.098Z,22.27
2018-11-06T06:48:04.418Z,22.02
2018-11-06T06:48:38.857Z,22.60
2018-11-06T06:49:13.293Z,22.13
2018-11-06T06:49:47.389Z,21.70
2018-11-06T06:50:21.544Z,21.85
2018-11-06T06:50:56.365Z,21.80
2018-11-06T06:51:30.705Z,21.77
2018-11-06T06:52:05.227Z,20.70
2018-11-06T06:52:40.478Z,22.20
2018-11-06T06:53:14.603Z,21.90
2018-11-06T06:53:48.713Z,21.02
2018-11-06T06:54:23.556Z,21.57
2018-11-06T06:54:58.114Z,22.10
2018-11-06T06:55:33.042Z,22.70
2018-11-06T06:56:07.155Z,21.50
2018-11-06T06:56:41.299Z,21.20
2018-11-06T06:57:15.754Z,22.35
2018-11-06T06:57:49.849Z,21.87
2018-11-06T06:58:23.965Z,22.30
2018-11-06T06:58:58.385Z,23.27
2018-11-06T06:59:32.642Z,22.60
2018-11-06T07:00:08.871Z,21.33
2018-11-06T07:00:43.179Z,21.37
2018-11-06T07:01:17.325Z,22.10
2018-11-06T07:01:51.772Z,22.42
2018-11-06T07:02:26.218Z,21.25
2018-11-06T07:03:00.891Z,23.60
2018-11-06T07:03:35.029Z,21.15
2018-11-06T07:04:09.106Z,21.65
2018-11-06T07:04:43.215Z,20.60
2018-11-06T07:05:18.661Z,20.30
2018-11-06T07:05:52.771Z,22.58
2018-11-06T07:06:26.883Z,21.50
2018-11-06T07:07:01.079Z,21.90
2018-11-06T07:07:35.787Z,22.00
2018-11-06T07:08:09.894Z,20.75
2018-11-06T07:08:44.024Z,21.52
2018-11-06T07:09:18.125Z,21.17
2018-11-06T07:09:52.214Z,21.30
2018-11-06T07:10:26.706Z,21.65
2018-11-06T07:11:00.782Z,22.07
2018-11-06T07:11:34.960Z,20.68
2018-11-06T07:12:09.717Z,20.48
2018-11-06T07:12:44.716Z,21.55
2018-11-06T07:13:19.012Z,20.23
2018-11-06T07:13:53.121Z,21.57
2018-11-06T07:14:27.566Z,22.27
2018-11-06T07:15:01.804Z,21.95
2018-11-06T07:15:35.889Z,21.12
2018-11-06T07:16:10.005Z,20.75
2018-11-06T07:16:44.146Z,21.17
2018-11-06T07:17:18.278Z,21.40
2018-11-06T07:17:52.870Z,21.50
2018-11-06T07:18:27.302Z,20.40
2018-11-06T07:19:01.584Z,20.27
2018-11-06T07:19:35.681Z,19.98
2018-11-06T07:20:13.362Z,22.25
2018-11-06T07:20:47.451Z,20.88
2018-11-06T07:21:21.558Z,20.92
2018-11-06T07:21:55.660Z,20.80
2018-11-06T07:22:29.897Z,21.30
2018-11-06T07:23:04.523Z,22.02
2018-11-06T07:23:39.005Z,20.72
2018-11-06T07:24:13.090Z,21.97
2018-11-06T07:24:47.170Z,21.73
2018-11-06T07:25:21.694Z,21.80
2018-11-06T07:25:56.091Z,21.37
2018-11-06T07:26:30.214Z,20.60
2018-11-06T07:27:05.201Z,20.77
2018-11-06T07:27:40.009Z,20.90
2018-11-06T07:28:14.109Z,23.02
2018-11-06T07:28:48.262Z,21.85
2018-11-06T07:29:29.425Z,20.20
2018-11-06T07:30:03.686Z,20.95
2018-11-06T07:30:38.149Z,21.27
2018-11-06T07:31:12.604Z,21.02
2018-11-06T07:31:46.755Z,20.92
2018-11-06T07:32:21.225Z,20.02
2018-11-06T07:32:55.294Z,20.27
2018-11-06T07:33:29.398Z,20.35
2018-11-06T07:34:03.538Z,21.57
2018-11-06T07:34:37.847Z,20.88
2018-11-06T07:35:12.864Z,22.77